createdAt,value
2017-05-27T00:00:10.612Z,68.63
2017-05-27T00:00:51.098Z,69.2
2017-05-27T00:01:31.579Z,69.3
2017-05-27T00:02:12.077Z,68.82
2017-05-27T00:02:52.573Z,68.82
2017-05-27T00:03:34.969Z,68.91
2017-05-27T00:04:15.463Z,69.01
2017-05-27T00:04:56.910Z,68.91
2017-05-27T00:05:37.377Z,69.01
2017-05-27T00:06:17.872Z,68.34
2017-05-27T00:06:58.362Z,68.91
2017-05-27T00:07:38.856Z,69.01
2017-05-27T00:08:19.348Z,69.3
2017-05-27T00:08:59.836Z,69.4
2017-05-27T00:09:40.329Z,68.91
2017-05-27T00:10:20.817Z,68.53
2017-05-27T00:11:01.312Z,68.24
2017-05-27T00:11:41.805Z,68.63
2017-05-27T00:12:23.219Z,68.59
2017-05-27T00:13:03.711Z,68.53
2017-05-27T00:13:44.203Z,68.63
2017-05-27T00:14:24.688Z,67.96
2017-05-27T00:15:05.182Z,68.63
2017-05-27T00:15:45.671Z,69.07
2017-05-27T00:16:26.170Z,69.17
2017-05-27T00:17:06.668Z,69.01
2017-05-27T00:17:47.162Z,68.82
2017-05-27T00:18:27.646Z,69.01
2017-05-27T00:19:08.135Z,69.17
2017-05-27T00:19:48.636Z,69.07
2017-05-27T00:20:29.889Z,69.65
2017-05-27T00:21:10.374Z,69.74
2017-05-27T00:21:50.859Z,69.65
2017-05-27T00:22:31.353Z,69.11
2017-05-27T00:23:11.846Z,69.26
2017-05-27T00:23:52.344Z,69.74
2017-05-27T00:24:32.838Z,69.36
2017-05-27T00:25:14.320Z,69.36
2017-05-27T00:25:54.807Z,69.36
2017-05-27T00:26:35.308Z,69.93
2017-05-27T00:27:16.312Z,70.13
2017-05-27T00:27:56.806Z,70.51
2017-05-27T00:28:37.293Z,70.99
2017-05-27T00:30:30.330Z,70.76
2017-05-27T00:31:10.542Z,70.9
2017-05-27T00:31:50.982Z,71.19
2017-05-27T00:32:31.442Z,71.28
2017-05-27T00:33:11.894Z,71.19
2017-05-27T00:33:52.361Z,71.25
2017-05-27T00:34:32.810Z,71.19
2017-05-27T00:35:13.271Z,70.9
2017-05-27T00:35:53.738Z,71.28
2017-05-27T00:36:34.192Z,71.05
2017-05-27T00:37:14.687Z,70.7
2017-05-27T00:37:55.106Z,70.67
2017-05-27T00:39:52.755Z,70.13
2017-05-27T00:40:33.250Z,69.93
2017-05-27T00:41:13.737Z,69.93
2017-05-27T00:41:54.234Z,69.74
2017-05-27T00:42:34.725Z,70.03
2017-05-27T00:43:15.219Z,70.61
2017-05-27T00:43:55.713Z,69.65
2017-05-27T00:44:36.191Z,70.32
2017-05-27T00:45:16.682Z,70.9
2017-05-27T00:45:57.960Z,71.15
2017-05-27T00:46:38.451Z,71.09
2017-05-27T00:47:19.808Z,71.19
2017-05-27T00:48:00.304Z,71.57
2017-05-27T00:48:40.791Z,71.53
2017-05-27T00:49:21.331Z,70.8
2017-05-27T00:50:01.840Z,70.8
2017-05-27T00:50:42.337Z,71.15
2017-05-27T00:51:23.849Z,71.25
2017-05-27T00:52:04.342Z,71.15
2017-05-27T00:52:44.836Z,71.63
2017-05-27T00:53:26.232Z,71.53
2017-05-27T00:54:06.712Z,72.3
2017-05-27T00:54:47.199Z,72.2
2017-05-27T00:55:27.693Z,72.3
2017-05-27T00:56:08.192Z,72.39
2017-05-27T00:56:48.674Z,72.39
2017-05-27T00:57:29.180Z,72.49
2017-05-27T00:58:09.665Z,73.07
2017-05-27T00:58:50.160Z,72.97
2017-05-27T00:59:30.661Z,72.88
2017-05-27T01:00:11.145Z,73.55
2017-05-27T01:00:51.625Z,72.78
2017-05-27T01:02:39.239Z,73.16
2017-05-27T01:03:19.637Z,73.32
2017-05-27T01:04:00.110Z,73.32
2017-05-27T01:04:40.563Z,73.22
2017-05-27T01:05:21.043Z,73.26
2017-05-27T01:06:01.491Z,73.41
2017-05-27T01:06:41.930Z,73.99
2017-05-27T01:07:22.369Z,74.27
2017-05-27T01:08:02.822Z,74.27
2017-05-27T01:08:43.355Z,74.57
2017-05-27T01:09:23.785Z,74.66
2017-05-27T01:10:04.272Z,74.37
2017-05-27T01:10:44.739Z,74.76
2017-05-27T01:12:37.302Z,74.66
2017-05-27T01:13:17.801Z,74.57
2017-05-27T01:13:58.282Z,74.47
2017-05-27T01:14:38.786Z,74.57
2017-05-27T01:15:19.277Z,74.66
2017-05-27T01:15:59.776Z,74.66
2017-05-27T01:16:40.845Z,74.47
2017-05-27T01:17:21.342Z,74.37
2017-05-27T01:18:01.836Z,74.27
2017-05-27T01:18:42.849Z,74.66
2017-05-27T01:19:23.338Z,74.27
2017-05-27T01:20:03.820Z,74.18
2017-05-27T01:20:44.312Z,74.47
2017-05-27T01:21:24.805Z,74.27
2017-05-27T01:22:05.299Z,74.76
2017-05-27T01:22:46.687Z,74.62
2017-05-27T01:23:27.185Z,74.47
2017-05-27T01:24:08.594Z,74.66
2017-05-27T01:24:49.082Z,74.37
2017-05-27T01:25:29.576Z,74.66
2017-05-27T01:26:10.997Z,74.57
2017-05-27T01:26:51.527Z,74.95
2017-05-27T01:27:32.010Z,75.04
2017-05-27T01:28:12.498Z,75.1
2017-05-27T01:28:52.992Z,75.39
2017-05-27T01:29:33.480Z,75.58
2017-05-27T01:30:13.965Z,75.48
2017-05-27T01:30:54.472Z,75.39
2017-05-27T01:31:34.960Z,75.96
2017-05-27T01:32:15.456Z,76.15
2017-05-27T01:32:55.946Z,76.25
2017-05-27T01:33:36.445Z,76.35
2017-05-27T01:34:16.929Z,76.25
2017-05-27T01:34:57.423Z,76.44
2017-05-27T01:35:37.923Z,76.92
2017-05-27T01:36:18.403Z,76.92
2017-05-27T01:36:58.904Z,76.64
2017-05-27T01:39:11.611Z,76.73
2017-05-27T01:39:52.104Z,76.73
2017-05-27T01:40:32.600Z,76.35
2017-05-27T01:41:13.091Z,76.73
2017-05-27T01:41:53.580Z,77.17
2017-05-27T01:42:34.043Z,77.08
2017-05-27T01:43:16.412Z,76.64
2017-05-27T01:43:56.902Z,76.92
2017-05-27T01:46:10.238Z,76.35
2017-05-27T01:46:50.500Z,76.35
2017-05-27T01:47:30.947Z,76.15
2017-05-27T01:48:11.454Z,76.35
2017-05-27T01:48:51.909Z,76.44
2017-05-27T01:49:32.342Z,76.44
2017-05-27T01:51:45.060Z,76.92
2017-05-27T01:52:25.546Z,77.08
2017-05-27T01:53:06.046Z,77.36
2017-05-27T01:53:46.538Z,77.75
2017-05-27T01:54:27.029Z,78.13
2017-05-27T01:55:08.024Z,77.84
2017-05-27T01:55:48.522Z,77.75
2017-05-27T01:56:29.013Z,78.22
2017-05-27T01:57:09.507Z,78.03
2017-05-27T01:57:50.004Z,78.51
2017-05-27T01:58:30.494Z,78.51
2017-05-27T01:59:10.985Z,78.61
2017-05-27T01:59:51.475Z,78.32
2017-05-27T02:00:31.957Z,78.32
2017-05-27T02:01:12.436Z,78.32
2017-05-27T02:01:52.944Z,78.51
2017-05-27T02:02:33.450Z,78.8
2017-05-27T02:03:14.754Z,78.61
2017-05-27T02:03:55.271Z,78.13
2017-05-27T02:04:35.741Z,78.22
2017-05-27T02:05:16.745Z,78.8
2017-05-27T02:05:57.232Z,78.13
2017-05-27T02:06:37.732Z,78.03
2017-05-27T02:07:19.014Z,78.7
2017-05-27T02:07:59.523Z,78.42
2017-05-27T02:08:40.028Z,78.13
2017-05-27T02:09:20.514Z,78.51
2017-05-27T02:10:01.613Z,78.8
2017-05-27T02:10:43.014Z,78.51
2017-05-27T02:11:24.435Z,78.42
2017-05-27T02:12:04.934Z,79.08
2017-05-27T02:12:45.438Z,78.7
2017-05-27T02:13:25.931Z,78.51
2017-05-27T02:14:06.422Z,78.32
2017-05-27T02:14:46.914Z,78.51
2017-05-27T02:15:27.392Z,79.05
2017-05-27T02:16:07.879Z,78.8
2017-05-27T02:16:48.359Z,79.28
2017-05-27T02:17:28.857Z,78.8
2017-05-27T02:18:10.248Z,79.05
2017-05-27T02:18:50.748Z,78.95
2017-05-27T02:19:31.251Z,79.52
2017-05-27T02:20:11.745Z,79.91
2017-05-27T02:20:52.253Z,80
2017-05-27T02:21:32.745Z,80.58
2017-05-27T02:22:14.751Z,80.29
2017-05-27T02:22:55.238Z,80.38
2017-05-27T02:23:35.726Z,80.38
2017-05-27T02:24:16.219Z,79.91
2017-05-27T02:24:56.703Z,80.29
2017-05-27T02:25:37.185Z,80.19
2017-05-27T02:26:17.686Z,80.1
2017-05-27T02:26:58.178Z,79.62
2017-05-27T02:27:38.667Z,79.75
2017-05-27T02:28:19.153Z,79.43
2017-05-27T02:28:59.645Z,79.52
2017-05-27T02:29:40.138Z,79.62
2017-05-27T02:30:20.628Z,79.08
2017-05-27T02:31:01.128Z,79.66
2017-05-27T02:31:41.625Z,79.47
2017-05-27T02:32:22.132Z,79.91
2017-05-27T02:33:02.632Z,79.66
2017-05-27T02:33:43.122Z,79.85
2017-05-27T02:34:23.621Z,79.43
2017-05-27T02:35:04.107Z,79.52
2017-05-27T02:35:45.257Z,79.85
2017-05-27T02:36:25.741Z,79.52
2017-05-27T02:37:06.232Z,79.81
2017-05-27T02:37:46.721Z,79.81
2017-05-27T02:38:27.218Z,80.29
2017-05-27T02:39:07.713Z,80.58
2017-05-27T02:39:48.755Z,80.87
2017-05-27T02:40:29.246Z,80.48
2017-05-27T02:41:10.450Z,80.48
2017-05-27T02:41:50.946Z,80.58
2017-05-27T02:42:31.428Z,80.77
2017-05-27T02:43:11.908Z,80.87
2017-05-27T02:43:52.388Z,80.87
2017-05-27T02:44:33.754Z,81.11
2017-05-27T02:45:14.252Z,80.92
2017-05-27T02:45:54.756Z,81.68
2017-05-27T02:46:35.848Z,82.74
2017-05-27T02:47:16.357Z,82.54
2017-05-27T02:47:57.529Z,82.74
2017-05-27T02:48:38.016Z,82.54
2017-05-27T02:49:18.484Z,82.64
2017-05-27T02:51:05.939Z,83.12
2017-05-27T02:51:47.411Z,83.12
2017-05-27T02:52:28.424Z,83.4
2017-05-27T02:53:08.943Z,84.23
2017-05-27T02:53:49.431Z,84.13
2017-05-27T02:54:29.930Z,84.42
2017-05-27T02:55:10.923Z,84.03
2017-05-27T02:55:51.421Z,84.7
2017-05-27T02:56:31.962Z,84.7
2017-05-27T02:57:12.467Z,84.13
2017-05-27T02:57:52.961Z,84.32
2017-05-27T02:58:34.337Z,84.7
2017-05-27T02:59:14.834Z,83.98
2017-05-27T02:59:56.246Z,83.4
2017-05-27T03:00:37.333Z,83.89
2017-05-27T03:01:17.803Z,84.13
2017-05-27T03:01:58.289Z,84.08
2017-05-27T03:02:38.794Z,83.89
2017-05-27T03:03:19.294Z,83.6
2017-05-27T03:03:59.784Z,84.08
2017-05-27T03:04:40.267Z,84.27
2017-05-27T03:05:21.428Z,83.98
2017-05-27T03:06:01.916Z,83.98
2017-05-27T03:06:42.405Z,83.69
2017-05-27T03:07:23.518Z,82.93
2017-05-27T03:08:04.003Z,83.31
2017-05-27T03:08:44.492Z,83.22
2017-05-27T03:09:25.744Z,83.03
2017-05-27T03:10:06.228Z,82.83
2017-05-27T03:10:46.729Z,83.03
2017-05-27T03:11:27.219Z,82.93
2017-05-27T03:12:08.434Z,82.35
2017-05-27T03:12:48.918Z,82.64
2017-05-27T03:13:30.247Z,82.64
2017-05-27T03:14:10.735Z,82.74
2017-05-27T03:14:51.224Z,82.17
2017-05-27T03:15:32.355Z,82.17
2017-05-27T03:16:12.843Z,82.07
2017-05-27T03:16:53.339Z,82.26
2017-05-27T03:17:35.742Z,82.17
2017-05-27T03:18:16.755Z,81.97
2017-05-27T03:18:57.253Z,81.63
2017-05-27T03:19:37.771Z,81.44
2017-05-27T03:20:18.268Z,81.25
2017-05-27T03:20:58.756Z,81.59
2017-05-27T03:21:39.247Z,81.11
2017-05-27T03:22:19.737Z,81.05
2017-05-27T03:23:00.231Z,81.05
2017-05-27T03:23:40.721Z,81.15
2017-05-27T03:24:21.216Z,80.38
2017-05-27T03:25:01.704Z,80.48
2017-05-27T03:25:42.195Z,80.77
2017-05-27T03:26:22.705Z,80.67
2017-05-27T03:27:03.191Z,80.96
2017-05-27T03:27:43.690Z,80.77
2017-05-27T03:28:24.190Z,80.67
2017-05-27T03:29:05.499Z,80.77
2017-05-27T03:29:45.983Z,80.63
2017-05-27T03:30:26.472Z,81.21
2017-05-27T03:31:06.959Z,81.44
2017-05-27T03:31:47.461Z,80.96
2017-05-27T03:32:27.952Z,80.87
2017-05-27T03:33:09.256Z,80.77
2017-05-27T03:33:49.742Z,80.48
2017-05-27T03:34:30.239Z,80.67
2017-05-27T03:35:10.743Z,80.58
2017-05-27T03:35:52.020Z,80.48
2017-05-27T03:36:32.512Z,80.38
2017-05-27T03:37:12.993Z,80.48
2017-05-27T03:37:53.489Z,80.29
2017-05-27T03:38:33.979Z,80.58
2017-05-27T03:39:16.249Z,80.38
2017-05-27T03:39:56.731Z,80.38
2017-05-27T03:40:37.228Z,80
2017-05-27T03:41:17.720Z,79.52
2017-05-27T03:41:58.222Z,79.81
2017-05-27T03:42:38.708Z,79.43
2017-05-27T03:43:19.202Z,80.38
2017-05-27T03:43:59.702Z,79.91
2017-05-27T03:44:40.191Z,80.1
2017-05-27T03:45:20.680Z,79.91
2017-05-27T03:46:01.169Z,79.91
2017-05-27T03:46:41.666Z,80
2017-05-27T03:47:22.164Z,80
2017-05-27T03:48:02.642Z,80.19
2017-05-27T03:48:43.149Z,80.29
2017-05-27T03:49:24.441Z,80.38
2017-05-27T03:50:04.939Z,79.91
2017-05-27T03:50:45.431Z,80.1
2017-05-27T03:51:25.921Z,80.1
2017-05-27T03:52:06.408Z,80.1
2017-05-27T03:52:46.945Z,80
2017-05-27T03:53:27.378Z,80.1
2017-05-27T03:54:07.868Z,79.72
2017-05-27T03:54:48.935Z,79.62
2017-05-27T03:55:29.434Z,79.33
2017-05-27T03:56:09.931Z,78.95
2017-05-27T03:56:50.411Z,79.14
2017-05-27T03:57:30.911Z,79.14
2017-05-27T03:58:11.383Z,78.86
2017-05-27T03:58:51.882Z,79.05
2017-05-27T03:59:33.029Z,79.43
2017-05-27T04:00:14.164Z,78.66
2017-05-27T04:00:55.157Z,78.66
2017-05-27T04:01:35.646Z,78.09
2017-05-27T04:02:16.136Z,77.94
2017-05-27T04:02:56.620Z,77.75
2017-05-27T04:03:37.116Z,78.28
2017-05-27T04:04:17.609Z,78.66
2017-05-27T04:04:58.103Z,78.09
2017-05-27T04:05:38.580Z,77.75
2017-05-27T04:06:19.059Z,77.55
2017-05-27T04:06:59.543Z,77.51
2017-05-27T04:07:41.024Z,77.46
2017-05-27T04:08:21.514Z,77.8
2017-05-27T04:09:02.013Z,77.75
2017-05-27T04:09:43.018Z,77.65
2017-05-27T04:10:23.510Z,77.84
2017-05-27T04:11:04.004Z,77.36
2017-05-27T04:11:44.492Z,77.55
2017-05-27T04:12:24.979Z,77.65
2017-05-27T04:13:06.249Z,77.75
2017-05-27T04:13:46.791Z,77.65
2017-05-27T04:14:27.234Z,77.94
2017-05-27T04:15:07.719Z,77.55
2017-05-27T04:15:48.222Z,77.65
2017-05-27T04:16:29.535Z,77.46
2017-05-27T04:17:10.664Z,77.36
2017-05-27T04:17:51.166Z,78.03
2017-05-27T04:18:31.664Z,77.17
2017-05-27T04:19:12.159Z,77.17
2017-05-27T04:19:53.169Z,76.89
2017-05-27T04:20:34.537Z,76.5
2017-05-27T04:21:15.031Z,76.4
2017-05-27T04:21:55.522Z,76.12
2017-05-27T04:22:36.011Z,76.4
2017-05-27T04:23:16.519Z,76.31
2017-05-27T04:23:57.008Z,76.12
2017-05-27T04:24:37.497Z,75.54
2017-05-27T04:25:17.994Z,75.54
2017-05-27T04:25:58.486Z,75.48
2017-05-27T04:26:38.975Z,75.29
2017-05-27T04:27:19.472Z,75.1
2017-05-27T04:28:00.674Z,75.01
2017-05-27T04:28:41.172Z,74.43
2017-05-27T04:29:22.448Z,74.33
2017-05-27T04:30:02.940Z,74.33
2017-05-27T04:30:43.436Z,74.72
2017-05-27T04:31:24.769Z,74.52
2017-05-27T04:32:05.247Z,74.15
2017-05-27T04:32:45.760Z,73.76
2017-05-27T04:33:26.247Z,73.86
2017-05-27T04:34:06.737Z,73.38
2017-05-27T04:34:47.231Z,72.9
2017-05-27T04:35:27.716Z,72.94
2017-05-27T04:36:08.211Z,72.45
2017-05-27T04:36:48.705Z,71.4
2017-05-27T04:37:29.185Z,70.96
2017-05-27T04:38:10.364Z,70.48
2017-05-27T04:38:50.856Z,70
2017-05-27T04:39:31.330Z,69.33
2017-05-27T04:40:11.831Z,68.85
2017-05-27T04:40:52.324Z,68.5
2017-05-27T04:41:32.802Z,67.73
2017-05-27T04:42:13.860Z,67.25
2017-05-27T04:42:54.352Z,67
2017-05-27T04:43:34.841Z,66.61
2017-05-27T04:44:15.332Z,65.84
2017-05-27T04:44:55.819Z,66.13
2017-05-27T04:45:36.309Z,65.3
2017-05-27T04:46:16.796Z,65.01
2017-05-27T04:46:57.295Z,64.25
2017-05-27T04:47:37.796Z,64.05
2017-05-27T04:48:18.296Z,63.57
2017-05-27T04:48:58.776Z,63.32
2017-05-27T04:49:39.269Z,62.64
2017-05-27T04:50:19.766Z,62.55
2017-05-27T04:51:00.255Z,62.07
2017-05-27T04:51:40.750Z,61.23
2017-05-27T04:52:21.232Z,60.94
2017-05-27T04:53:01.730Z,61.14
2017-05-27T04:53:42.948Z,61.23
2017-05-27T04:54:23.446Z,60.17
2017-05-27T04:55:04.775Z,59.89
2017-05-27T04:55:45.276Z,60.11
2017-05-27T04:56:25.755Z,59.24
2017-05-27T04:58:18.293Z,57.8
2017-05-27T04:58:58.781Z,57.8
2017-05-27T04:59:39.280Z,57.54
2017-05-27T05:00:19.773Z,57.25
2017-05-27T05:01:00.262Z,56.48
2017-05-27T05:01:40.758Z,56.58
2017-05-27T05:02:21.254Z,57.25
2017-05-27T05:03:01.743Z,56.29
2017-05-27T05:03:42.243Z,56
2017-05-27T05:04:22.727Z,56.1
2017-05-27T05:05:03.219Z,56.2
2017-05-27T05:05:43.712Z,55.71
2017-05-27T05:06:24.207Z,55.35
2017-05-27T05:07:04.719Z,55.45
2017-05-27T05:07:46.198Z,55.16
2017-05-27T05:08:26.690Z,55.26
2017-05-27T05:09:07.183Z,55.35
2017-05-27T05:09:48.600Z,54.42
2017-05-27T05:10:29.099Z,53.45
2017-05-27T05:11:09.598Z,53.45
2017-05-27T05:11:50.093Z,53.09
2017-05-27T05:12:30.583Z,52.33
2017-05-27T05:13:11.081Z,52.33
2017-05-27T05:13:51.570Z,51.84
2017-05-27T05:14:32.064Z,51.65
2017-05-27T05:15:12.567Z,51.26
2017-05-27T05:15:53.052Z,50.88
2017-05-27T05:16:33.550Z,51.07
2017-05-27T05:17:14.034Z,50.81
2017-05-27T05:17:54.528Z,50.04
2017-05-27T05:18:35.008Z,49.94
2017-05-27T05:19:15.507Z,49.75
2017-05-27T05:19:56.013Z,49.65
2017-05-27T05:20:36.467Z,50.04
2017-05-27T05:21:16.991Z,49.94
2017-05-27T05:21:57.445Z,49.37
2017-05-27T05:22:37.937Z,49.29
2017-05-27T05:23:18.434Z,49.29
2017-05-27T05:23:58.915Z,48.9
2017-05-27T05:24:39.410Z,48.61
2017-05-27T05:26:53.103Z,47.85
2017-05-27T05:27:33.601Z,47.77
2017-05-27T05:28:14.102Z,47.87
2017-05-27T05:28:54.591Z,47.94
2017-05-27T05:29:35.102Z,47.75
2017-05-27T05:30:15.600Z,47.65
2017-05-27T05:30:56.125Z,47.55
2017-05-27T05:31:36.588Z,47.65
2017-05-27T05:32:17.103Z,47.67
2017-05-27T05:32:57.600Z,47.87
2017-05-27T05:33:38.102Z,47.48
2017-05-27T05:34:18.598Z,47.19
2017-05-27T05:34:59.095Z,46.73
2017-05-27T05:35:39.577Z,45.96
2017-05-27T05:36:20.056Z,45.57
2017-05-27T05:37:00.530Z,45.67
2017-05-27T05:37:41.900Z,45.96
2017-05-27T05:38:22.391Z,45.84
2017-05-27T05:39:02.893Z,45.17
2017-05-27T05:39:43.404Z,45.17
2017-05-27T05:42:01.183Z,45.09
2017-05-27T05:42:41.674Z,44.42
2017-05-27T05:43:22.168Z,44.51
2017-05-27T05:44:02.656Z,44.9
2017-05-27T05:44:43.158Z,44.6
2017-05-27T05:45:23.643Z,44.8
2017-05-27T05:46:04.141Z,44.15
2017-05-27T05:46:44.639Z,43.18
2017-05-27T05:47:25.152Z,42.89
2017-05-27T05:48:05.624Z,42.99
2017-05-27T05:48:46.118Z,43.08
2017-05-27T05:49:26.621Z,43.28
2017-05-27T05:50:07.124Z,43.01
2017-05-27T05:50:47.628Z,43.1
2017-05-27T05:51:28.110Z,42.25
2017-05-27T05:52:08.610Z,42.16
2017-05-27T05:52:49.097Z,41.94
2017-05-27T05:53:30.395Z,42.04
2017-05-27T05:54:10.889Z,42.04
2017-05-27T05:54:51.393Z,42.33
2017-05-27T05:55:31.887Z,41.66
2017-05-27T05:56:12.380Z,40.9
2017-05-27T05:56:52.874Z,41.02
2017-05-27T05:57:33.398Z,40.63
2017-05-27T05:58:13.895Z,40.05
2017-05-27T05:58:54.393Z,39.69
2017-05-27T05:59:34.884Z,39.59
2017-05-27T06:00:15.983Z,39.03
2017-05-27T06:00:56.507Z,39.29
2017-05-27T06:01:37.001Z,39.7
2017-05-27T06:02:18.487Z,38.73
2017-05-27T06:02:58.976Z,38.15
2017-05-27T06:03:39.456Z,38.37
2017-05-27T06:04:19.964Z,38.56
2017-05-27T06:05:00.443Z,37.96
2017-05-27T06:05:41.893Z,38.73
2017-05-27T06:06:22.391Z,38.83
2017-05-27T06:07:02.881Z,38.83
2017-05-27T06:07:43.383Z,39.51
2017-05-27T06:08:23.880Z,39.39
2017-05-27T06:09:04.371Z,39.41
2017-05-27T06:09:44.861Z,39.61
2017-05-27T06:10:25.358Z,38.83
2017-05-27T06:11:05.869Z,38.15
2017-05-27T06:11:46.369Z,38.56
2017-05-27T06:12:26.854Z,37.49
2017-05-27T06:13:07.360Z,37.69
2017-05-27T06:13:47.847Z,37.61
2017-05-27T06:14:28.392Z,37.32
2017-05-27T06:15:09.684Z,37.41
2017-05-27T06:15:51.586Z,36.85
2017-05-27T06:16:32.130Z,36.77
2017-05-27T06:17:12.612Z,36.38
2017-05-27T06:17:53.115Z,35.53
2017-05-27T06:18:35.075Z,35.33
2017-05-27T06:19:15.566Z,35.51
2017-05-27T06:19:56.074Z,35.98
2017-05-27T06:20:36.586Z,36.44
2017-05-27T06:21:17.084Z,36.56
2017-05-27T06:21:57.583Z,36.44
2017-05-27T06:22:38.087Z,36.83
2017-05-27T06:23:18.573Z,37.03
2017-05-27T06:23:59.061Z,37.3
2017-05-27T06:24:39.568Z,37.59
2017-05-27T06:25:20.052Z,37.69
2017-05-27T06:26:00.537Z,37.51
2017-05-27T06:27:48.023Z,35.32
2017-05-27T06:28:28.519Z,35.24
2017-05-27T06:29:09.003Z,34.67
2017-05-27T06:29:49.470Z,34.93
2017-05-27T06:30:29.980Z,34.75
2017-05-27T06:31:10.474Z,34.17
2017-05-27T06:31:50.966Z,34.44
2017-05-27T06:32:31.453Z,34.74
2017-05-27T06:34:29.094Z,33.43
2017-05-27T06:35:09.595Z,32.96
2017-05-27T06:35:51.085Z,32.39
2017-05-27T06:36:32.382Z,31.9
2017-05-27T06:37:12.875Z,31.22
2017-05-27T06:40:42.778Z,32.08
2017-05-27T06:41:23.246Z,32.17
2017-05-27T06:42:03.739Z,32.67
2017-05-27T06:42:45.951Z,32.55
2017-05-27T06:43:26.443Z,32.65
2017-05-27T06:44:07.726Z,31.97
2017-05-27T06:44:48.202Z,31.79
2017-05-27T06:45:28.687Z,31.5
2017-05-27T06:46:09.185Z,31.04
2017-05-27T06:46:49.683Z,30.94
2017-05-27T06:47:30.171Z,30.75
2017-05-27T06:48:10.674Z,30.57
2017-05-27T06:48:51.160Z,29.3
2017-05-27T06:49:32.312Z,29.69
2017-05-27T06:50:12.790Z,29.5
2017-05-27T06:50:53.294Z,29.03
2017-05-27T06:51:33.783Z,29.11
2017-05-27T06:52:14.246Z,29.78
2017-05-27T06:52:55.546Z,30.74
2017-05-27T06:53:36.041Z,30.93
2017-05-27T06:54:16.531Z,30.46
2017-05-27T06:54:57.024Z,30.17
2017-05-27T06:55:37.575Z,30.46
2017-05-27T06:56:17.994Z,30.46
2017-05-27T06:56:58.478Z,30.55
2017-05-27T06:57:38.969Z,30.75
2017-05-27T06:58:20.235Z,29.79
2017-05-27T06:59:00.730Z,29.52
2017-05-27T06:59:41.223Z,29.69
2017-05-27T07:00:21.692Z,29.68
2017-05-27T07:01:02.159Z,30.85
2017-05-27T07:01:42.642Z,30.28
2017-05-27T07:02:23.105Z,29.99
2017-05-27T07:03:03.576Z,29.6
2017-05-27T07:03:44.734Z,29.88
2017-05-27T07:04:25.187Z,29.97
2017-05-27T07:05:05.656Z,29.89
2017-05-27T07:05:46.719Z,29.42
2017-05-27T07:06:27.173Z,30.67
2017-05-27T07:07:07.629Z,29.32
2017-05-27T07:07:48.121Z,29.32
2017-05-27T07:08:29.328Z,29.13
2017-05-27T07:09:09.824Z,29.11
2017-05-27T07:09:50.321Z,28.74
2017-05-27T07:10:30.817Z,28.74
2017-05-27T07:11:11.311Z,29.22
2017-05-27T07:11:51.810Z,29.14
2017-05-27T07:12:33.175Z,28.57
2017-05-27T07:13:13.668Z,28.19
2017-05-27T07:13:54.168Z,27.3
2017-05-27T07:14:34.678Z,27.79
2017-05-27T07:15:15.178Z,27.51
2017-05-27T07:15:55.673Z,26.92
2017-05-27T07:16:36.165Z,27.22
2017-05-27T07:17:16.659Z,26.84
2017-05-27T07:17:57.151Z,26.81
2017-05-27T07:18:37.648Z,27.01
2017-05-27T07:19:18.136Z,27.69
2017-05-27T07:19:58.629Z,27.03
2017-05-27T07:20:39.127Z,25.98
2017-05-27T07:21:19.606Z,26.06
2017-05-27T07:22:00.107Z,26.17
2017-05-27T07:22:40.588Z,25.68
2017-05-27T07:23:21.091Z,25.59
2017-05-27T07:24:01.590Z,25.2
2017-05-27T07:24:42.749Z,25.78
2017-05-27T07:25:23.982Z,24.91
2017-05-27T07:26:04.469Z,24.52
2017-05-27T07:26:44.974Z,24.91
2017-05-27T07:27:25.460Z,24.26
2017-05-27T07:28:05.967Z,24.07
2017-05-27T07:28:47.330Z,23.1
2017-05-27T07:29:27.818Z,23.77
2017-05-27T07:30:08.322Z,23.19
2017-05-27T07:30:48.808Z,23.37
2017-05-27T07:31:29.310Z,23.86
2017-05-27T07:32:09.804Z,22.91
2017-05-27T07:32:50.310Z,23.2
2017-05-27T07:33:30.810Z,23.38
2017-05-27T07:34:11.292Z,23.37
2017-05-27T07:34:51.792Z,23.94
2017-05-27T07:35:32.270Z,24.61
2017-05-27T07:36:13.774Z,24.32
2017-05-27T07:36:54.267Z,24.51
2017-05-27T07:37:34.765Z,24.52
2017-05-27T07:38:15.254Z,24.71
2017-05-27T07:38:55.759Z,23.96
2017-05-27T07:39:36.259Z,23.57
2017-05-27T07:40:16.757Z,23.58
2017-05-27T07:40:57.246Z,22.34
2017-05-27T07:41:37.724Z,22.34
2017-05-27T07:42:18.223Z,23.66
2017-05-27T07:42:58.713Z,24.44
2017-05-27T07:43:39.223Z,23.59
2017-05-27T07:44:19.716Z,24.32
2017-05-27T07:45:00.195Z,24.62
2017-05-27T07:45:40.704Z,24.14
2017-05-27T07:46:21.196Z,24.05
2017-05-27T07:47:01.705Z,23.3
2017-05-27T07:47:42.193Z,23.36
2017-05-27T07:48:22.685Z,23.3
2017-05-27T07:49:03.182Z,22.61
2017-05-27T07:49:43.675Z,23.38
2017-05-27T07:50:24.146Z,23.2
2017-05-27T07:51:04.567Z,23.2
2017-05-27T07:51:44.996Z,22.52
2017-05-27T07:52:25.446Z,22.44
2017-05-27T07:54:18.359Z,21.06
2017-05-27T07:54:58.855Z,21.84
2017-05-27T07:55:40.000Z,21.92
2017-05-27T07:56:20.496Z,22.88
2017-05-27T07:58:33.214Z,22.22
2017-05-27T07:59:13.715Z,22.13
2017-05-27T07:59:54.198Z,22.5
2017-05-27T08:00:34.719Z,22.41
2017-05-27T08:01:15.216Z,22.51
2017-05-27T08:01:55.723Z,22.41
2017-05-27T08:02:36.217Z,21.75
2017-05-27T08:03:16.712Z,20.89
2017-05-27T08:03:57.221Z,20.8
2017-05-27T08:04:37.710Z,20.59
2017-05-27T08:05:18.200Z,21.17
2017-05-27T08:05:58.698Z,22.13
2017-05-27T08:06:40.017Z,21.66
2017-05-27T08:07:20.498Z,21.37
2017-05-27T08:08:00.994Z,20.98
2017-05-27T08:08:41.487Z,20.5
2017-05-27T08:09:21.977Z,19.64
2017-05-27T08:10:02.473Z,19.14
2017-05-27T08:10:42.965Z,19.35
2017-05-27T08:11:23.450Z,19.62
2017-05-27T08:12:03.951Z,20.68
2017-05-27T08:12:44.436Z,20.88
2017-05-27T08:13:24.923Z,20.12
2017-05-27T08:14:06.203Z,21.09
2017-05-27T08:14:46.704Z,20.21
2017-05-27T08:15:27.193Z,19.73
2017-05-27T08:16:07.681Z,19.16
2017-05-27T08:16:48.167Z,18.37
2017-05-27T08:17:28.657Z,19.45
2017-05-27T08:19:16.144Z,20.12
2017-05-27T08:19:56.647Z,19.84
2017-05-27T08:20:37.140Z,19.06
2017-05-27T08:21:17.626Z,19.62
2017-05-27T08:21:58.132Z,19.43
2017-05-27T08:22:38.633Z,20.79
2017-05-27T08:23:19.130Z,20.69
2017-05-27T08:23:59.632Z,20.77
2017-05-27T08:24:40.127Z,20.88
2017-05-27T08:25:20.617Z,20.4
2017-05-27T08:26:01.097Z,20.88
2017-05-27T08:26:41.595Z,20.68
2017-05-27T08:27:22.092Z,20.61
2017-05-27T08:28:02.606Z,19.64
2017-05-27T08:28:43.160Z,19.82
2017-05-27T08:29:23.597Z,20.2
2017-05-27T08:30:04.091Z,20.48
2017-05-27T08:30:44.584Z,20.01
2017-05-27T08:31:25.932Z,19.62
2017-05-27T08:32:06.432Z,19.44
2017-05-27T08:32:46.914Z,19.62
2017-05-27T08:33:28.339Z,19.13
2017-05-27T08:34:08.821Z,19.15
2017-05-27T08:34:49.310Z,18.37
2017-05-27T08:35:30.425Z,18.58
2017-05-27T08:36:10.923Z,18.1
2017-05-27T08:36:51.416Z,17.71
2017-05-27T08:37:31.915Z,18.48
2017-05-27T08:38:12.406Z,19.34
2017-05-27T08:38:52.909Z,19.53
2017-05-27T08:39:33.404Z,20.21
2017-05-27T08:40:13.909Z,19.64
2017-05-27T08:40:54.416Z,19.62
2017-05-27T08:41:34.875Z,18.96
2017-05-27T08:43:22.410Z,17.24
2017-05-27T08:44:02.880Z,16.47
2017-05-27T08:44:43.398Z,15.67
2017-05-27T08:45:23.829Z,15.88
2017-05-27T08:47:21.455Z,17.32
2017-05-27T08:48:01.945Z,17.02
2017-05-27T08:48:42.409Z,17.42
2017-05-27T08:50:55.289Z,17.72
2017-05-27T08:51:35.663Z,16.75
2017-05-27T08:52:16.154Z,16.55
2017-05-27T08:52:56.663Z,17.13
2017-05-27T08:53:37.148Z,17.79
2017-05-27T08:54:17.602Z,18.29
2017-05-27T08:54:58.060Z,17.54
2017-05-27T08:55:38.525Z,15.86
2017-05-27T08:56:18.992Z,15.97
2017-05-27T08:56:59.443Z,16.16
2017-05-27T08:57:39.916Z,15.1
2017-05-27T08:58:20.410Z,14.13
2017-05-27T09:00:18.087Z,14.25
2017-05-27T09:00:58.563Z,13.57
2017-05-27T09:01:39.065Z,12.49
2017-05-27T09:02:20.551Z,12.96
2017-05-27T09:03:01.088Z,13.06
2017-05-27T09:03:41.557Z,12.49
2017-05-27T09:04:22.048Z,11.61
2017-05-27T09:05:02.522Z,11.8
2017-05-27T09:05:43.010Z,12.77
2017-05-27T09:06:23.476Z,13.17
2017-05-27T09:07:03.964Z,12.67
2017-05-27T09:07:44.450Z,13.16
2017-05-27T09:08:24.945Z,13.06
2017-05-27T09:09:05.454Z,14.04
2017-05-27T09:09:45.934Z,13.76
2017-05-27T09:10:26.433Z,15.78
2017-05-27T09:11:06.919Z,16.73
2017-05-27T09:11:47.416Z,16.55
2017-05-27T09:12:27.908Z,15.58
2017-05-27T09:13:08.400Z,15.2
2017-05-27T09:13:48.895Z,16.25